Time;durP1;ratioP1;P1;durP2;ratioP2;P2;SDS_P1;SDS_P2;PMS_P1;PMS_P2;Temp;Humidity;BMP_temperature;BMP_pressure;BME280_temperature;BME280_humidity;BME280_pressure;Samples;Min_cycle;Max_cycle;Signal;HPM_P1;HPM_P2
2022/09/24 00:02:03;;;;;;;6.38;4.50;;;;;;;11.11;75.37;98840.97;5075833;28;20028;-54
2022/09/24 00:04:28;;;;;;;4.28;3.88;;;;;;;11.10;75.63;98833.94;5076225;28;20407;-53
2022/09/24 00:06:54;;;;;;;5.07;3.85;;;;;;;11.11;75.57;98830.25;5076271;28;20034;-50
2022/09/24 00:09:21;;;;;;;6.43;3.95;;;;;;;11.13;75.90;98830.94;5076028;28;20036;-53
2022/09/24 00:11:48;;;;;;;5.00;3.70;;;;;;;11.14;75.27;98827.28;5076103;28;20245;-54
2022/09/24 00:14:15;;;;;;;4.82;3.60;;;;;;;11.10;75.64;98815.19;5075919;28;20036;-55
2022/09/24 00:16:42;;;;;;;4.40;3.50;;;;;;;10.93;75.41;98771.31;5075349;28;20063;-50
2022/09/24 00:19:09;;;;;;;5.22;3.30;;;;;;;11.08;75.78;98803.75;5075816;28;20032;-50
2022/09/24 00:21:36;;;;;;;3.88;3.10;;;;;;;11.08;75.73;98790.34;5075278;28;20488;-51
2022/09/24 00:26:48;;;;;;;4.55;2.92;;;;;;;11.13;75.78;98793.44;5074879;28;20097;-51
2022/09/24 00:27:01;;;;;;;3.65;3.03;;;;;;;11.11;75.85;98788.22;5075902;28;20090;-52
2022/09/24 00:29:27;;;;;;;4.22;3.22;;;;;;;11.09;75.67;98782.19;5075964;28;20020;-58
2022/09/24 00:31:53;;;;;;;7.07;2.95;;;;;;;11.06;75.94;98767.25;5075978;28;20032;-55
2022/09/24 00:34:19;;;;;;;3.40;2.88;;;;;;;11.03;76.00;98756.00;5075818;28;20384;-50
2022/09/24 00:36:45;;;;;;;4.03;3.03;;;;;;;11.05;76.23;98754.03;5075213;28;20094;-53
2022/09/24 00:39:12;;;;;;;3.33;3.03;;;;;;;11.09;76.66;98749.19;5075241;28;20041;-53
2022/09/24 00:41:39;;;;;;;6.13;2.95;;;;;;;11.04;76.54;98731.75;5075601;28;20032;-50
2022/09/24 00:44:39;;;;;;;5.03;2.97;;;;;;;11.18;76.41;98724.16;5075356;28;20097;-49
2022/09/24 00:47:10;;;;;;;4.00;2.65;;;;;;;11.03;76.11;98705.94;5075331;28;20036;-52
2022/09/24 00:49:36;;;;;;;2.90;2.45;;;;;;;11.02;76.06;98717.66;5075249;28;20135;-49
2022/09/24 00:52:02;;;;;;;4.20;2.83;;;;;;;10.97;76.48;98695.88;5075640;28;20037;-54
2022/09/24 00:54:28;;;;;;;2.75;2.17;;;;;;;10.96;76.09;98688.81;5075051;28;20047;-49
2022/09/24 00:56:58;;;;;;;2.50;2.30;;;;;;;11.03;76.17;98692.56;5075293;28;20509;-51
2022/09/24 00:59:24;;;;;;;2.70;2.15;;;;;;;11.01;76.18;98694.56;5075633;28;20094;-53
2022/09/24 01:01:52;;;;;;;3.15;2.17;;;;;;;11.00;76.08;98686.69;5075428;28;20405;-51
2022/09/24 01:04:20;;;;;;;3.47;2.28;;;;;;;11.00;76.23;98684.84;5075114;28;20048;-50
2022/09/24 01:06:48;;;;;;;4.03;2.28;;;;;;;10.99;76.19;98669.78;5074869;28;20111;-54
2022/09/24 01:09:14;;;;;;;2.13;1.92;;;;;;;10.79;75.91;98646.84;5074981;28;20103;-49
2022/09/24 01:11:42;;;;;;;2.47;1.90;;;;;;;10.94;75.94;98669.41;5074414;28;20024;-52
2022/09/24 01:14:08;;;;;;;2.67;1.92;;;;;;;10.94;76.20;98664.03;5074654;28;20033;-49
2022/09/24 01:16:46;;;;;;;2.83;2.08;;;;;;;10.93;76.42;98643.63;5075029;28;20029;-52
2022/09/24 01:19:39;;;;;;;2.10;1.60;;;;;;;10.94;76.42;98655.16;5075206;28;20043;-54
2022/09/24 01:22:42;;;;;;;2.15;1.70;;;;;;;10.95;76.58;98646.97;5075018;28;20050;-50
2022/09/24 01:25:21;;;;;;;2.28;1.80;;;;;;;10.93;76.79;98638.25;5074893;28;20064;-49
2022/09/24 01:28:04;;;;;;;2.40;1.98;;;;;;;10.95;76.77;98632.72;5073604;28;20416;-51
2022/09/24 01:30:33;;;;;;;2.45;1.88;;;;;;;10.81;76.82;98626.09;5074817;28;20036;-48
2022/09/24 01:33:07;;;;;;;1.40;1.30;;;;;;;10.81;77.01;98624.28;5074935;28;20037;-47
2022/09/24 01:35:43;;;;;;;4.28;1.92;;;;;;;10.83;77.29;98616.94;5074525;28;20031;-48
2022/09/24 01:38:15;;;;;;;2.53;2.33;;;;;;;10.79;76.80;98609.34;5074629;28;20029;-52
2022/09/24 01:40:42;;;;;;;2.80;2.33;;;;;;;10.73;76.70;98610.81;5074761;28;20046;-51
2022/09/24 01:43:10;;;;;;;2.95;2.17;;;;;;;10.72;77.13;98609.97;5074395;28;20028;-55
2022/09/24 01:45:38;;;;;;;2.90;2.03;;;;;;;10.73;77.34;98598.28;5074042;28;20078;-53
2022/09/24 01:48:05;;;;;;;2.17;1.95;;;;;;;10.71;77.35;98597.59;5074141;28;20039;-51
2022/09/24 01:50:42;;;;;;;2.55;2.10;;;;;;;10.75;77.62;98595.47;5074580;28;20095;-52
2022/09/24 01:53:25;;;;;;;2.42;2.08;;;;;;;10.81;77.35;98580.59;5074269;28;20032;-55
2022/09/24 01:55:59;;;;;;;2.25;1.98;;;;;;;10.75;77.01;98571.38;5074089;28;20081;-51
2022/09/24 01:58:42;;;;;;;2.30;2.08;;;;;;;10.69;77.18;98567.47;5073646;28;20047;-47
2022/09/24 02:01:12;;;;;;;4.43;1.90;;;;;;;10.69;77.40;98569.28;5073941;28;20033;-49
2022/09/24 02:03:43;;;;;;;1.98;1.77;;;;;;;10.68;77.29;98565.78;5074084;28;20020;-50
2022/09/24 02:06:19;;;;;;;1.90;1.60;;;;;;;10.72;76.93;98556.44;5073693;28;20067;-52
2022/09/24 02:08:46;;;;;;;1.65;1.50;;;;;;;10.71;77.06;98556.59;5073249;28;20430;-52
2022/09/24 02:11:20;;;;;;;1.75;1.60;;;;;;;10.72;77.14;98552.91;5067322;28;20371;-49
2022/09/24 02:13:57;;;;;;;2.33;1.90;;;;;;;10.74;76.87;98542.91;5073779;28;20032;-52
2022/09/24 02:16:31;;;;;;;1.95;1.70;;;;;;;10.71;77.02;98549.41;5073581;28;20031;-51
2022/09/24 02:19:02;;;;;;;1.50;1.40;;;;;;;10.65;77.24;98531.31;5073502;28;20119;-53
2022/09/24 02:21:31;;;;;;;1.05;0.90;;;;;;;10.66;76.84;98519.59;5073907;28;20074;-54
2022/09/24 02:24:07;;;;;;;1.75;1.00;;;;;;;10.68;77.08;98522.94;5072707;28;20363;-55
2022/09/24 02:26:32;;;;;;;1.40;1.00;;;;;;;10.66;76.90;98527.63;5073769;28;20033;-51
2022/09/24 02:28:58;;;;;;;0.80;0.75;;;;;;;10.58;77.26;98516.84;5073500;28;20043;-52
2022/09/24 02:31:29;;;;;;;1.00;0.75;;;;;;;10.50;77.23;98498.91;5072824;28;20779;-54
2022/09/24 02:36:43;;;;;;;1.33;1.23;;;;;;;10.60;77.19;98509.50;5073444;28;20028;-55
2022/09/24 02:39:08;;;;;;;1.50;1.15;;;;;;;10.59;77.00;98507.81;5073624;28;20039;-50
2022/09/24 02:41:35;;;;;;;1.67;1.55;;;;;;;10.60;76.98;98512.16;5073259;28;20035;-50
2022/09/24 02:44:00;;;;;;;1.38;1.27;;;;;;;10.54;76.92;98508.31;5073259;28;20040;-53
2022/09/24 02:46:26;;;;;;;1.63;1.40;;;;;;;10.52;77.30;98499.59;5073172;28;20086;-55
2022/09/24 02:48:52;;;;;;;2.47;1.35;;;;;;;10.52;77.21;98496.91;5073157;28;20064;-52
2022/09/24 02:51:17;;;;;;;1.58;1.48;;;;;;;10.51;77.11;98495.25;5073137;28;20119;-48
2022/09/24 02:53:43;;;;;;;3.15;1.63;;;;;;;10.51;77.41;98483.69;5072915;28;20508;-48
2022/09/24 02:56:09;;;;;;;1.83;1.10;;;;;;;10.50;77.23;98480.19;5073014;28;20111;-51
2022/09/24 02:58:36;;;;;;;1.00;0.85;;;;;;;10.47;77.25;98481.31;5073017;28;20078;-54
2022/09/24 03:01:04;;;;;;;0.82;0.52;;;;;;;10.44;77.24;98478.97;5073036;28;20032;-50
2022/09/24 03:03:29;;;;;;;0.73;0.57;;;;;;;10.42;77.45;98480.97;5073058;28;20044;-50
2022/09/24 03:05:55;;;;;;;2.08;0.60;;;;;;;10.40;77.15;98472.25;5073065;28;20025;-51
2022/09/24 03:08:23;;;;;;;0.60;0.38;;;;;;;10.38;77.23;98468.88;5072699;28;20028;-51
2022/09/24 03:10:50;;;;;;;0.57;0.50;;;;;;;10.41;77.59;98476.59;5072291;28;20094;-53
2022/09/24 03:13:17;;;;;;;0.40;0.30;;;;;;;10.42;77.38;98464.91;5072789;28;20028;-54
2022/09/24 03:15:44;;;;;;;0.60;0.28;;;;;;;10.44;77.41;98470.09;5072896;28;20038;-53
2022/09/24 03:18:09;;;;;;;0.30;0.30;;;;;;;10.39;77.79;98464.34;5072646;28;20082;-49
2022/09/24 03:20:35;;;;;;;0.65;0.30;;;;;;;10.41;77.75;98473.94;5072455;28;20020;-48
2022/09/24 03:23:00;;;;;;;0.80;0.40;;;;;;;10.34;77.27;98456.78;5072676;28;20039;-50
2022/09/24 03:25:26;;;;;;;0.73;0.30;;;;;;;10.36;77.68;98476.19;5072666;28;20060;-51
2022/09/24 03:27:51;;;;;;;0.40;0.30;;;;;;;10.31;77.52;98468.63;5072649;28;20131;-52
2022/09/24 03:33:01;;;;;;;0.80;0.30;;;;;;;10.26;77.24;98475.44;5072492;28;20048;-52
2022/09/24 03:35:26;;;;;;;1.00;0.30;;;;;;;10.24;77.65;98472.09;5072449;28;20040;-51
2022/09/24 03:37:52;;;;;;;0.20;0.20;;;;;;;10.04;77.68;98440.16;5072363;28;20036;-49
2022/09/24 03:40:17;;;;;;;2.80;0.20;;;;;;;10.24;77.98;98472.91;5072444;28;20032;-51
2022/09/24 03:42:43;;;;;;;0.95;0.30;;;;;;;10.22;77.91;98468.72;5072324;28;20040;-48
2022/09/24 03:45:09;;;;;;;0.63;0.40;;;;;;;10.23;77.61;98481.09;5071146;28;20028;-58
2022/09/24 03:47:36;;;;;;;0.63;0.30;;;;;;;10.06;77.81;98448.88;5072130;28;20029;-50
2022/09/24 03:50:02;;;;;;;0.47;0.30;;;;;;;10.18;78.05;98471.72;5072357;28;20060;-52
2022/09/24 03:52:29;;;;;;;2.40;0.40;;;;;;;10.19;78.20;98454.69;5071767;28;20048;-51
2022/09/24 03:54:55;;;;;;;0.90;0.40;;;;;;;10.18;78.44;98458.34;5071228;28;20028;-57
2022/09/24 03:57:20;;;;;;;0.65;0.50;;;;;;;10.23;78.15;98446.34;5072023;28;20029;-63
2022/09/24 03:59:46;;;;;;;1.08;0.28;;;;;;;10.19;78.33;98438.63;5070106;28;20028;-49
2022/09/24 04:02:12;;;;;;;0.55;0.40;;;;;;;10.22;78.06;98445.47;5061921;28;20024;-54
2022/09/24 04:04:38;;;;;;;0.75;0.50;;;;;;;10.20;78.09;98434.09;5062697;28;20083;-56
2022/09/24 04:07:04;;;;;;;1.42;0.40;;;;;;;10.18;78.40;98428.94;5062791;28;20445;-54
2022/09/24 04:09:30;;;;;;;2.42;0.50;;;;;;;10.17;78.38;98435.28;5060193;28;20039;-54
2022/09/24 04:11:56;;;;;;;0.28;0.20;;;;;;;10.16;78.30;98422.03;5061756;28;20047;-56
2022/09/24 04:14:22;;;;;;;0.50;0.20;;;;;;;10.04;78.20;98394.72;5062278;28;20037;-51
2022/09/24 04:16:47;;;;;;;0.85;0.20;;;;;;;10.22;78.32;98425.94;5060621;28;20324;-56
2022/09/24 04:19:14;;;;;;;0.45;0.45;;;;;;;10.17;77.91;98421.03;5061929;28;20032;-54
2022/09/24 04:21:44;;;;;;;0.45;0.30;;;;;;;10.19;78.03;98414.56;5061751;28;20431;-59
2022/09/24 04:24:10;;;;;;;0.28;0.20;;;;;;;10.13;77.92;98409.84;5061093;28;20355;-52
2022/09/24 04:26:35;;;;;;;0.45;0.32;;;;;;;9.98;77.71;98381.97;5062370;28;20439;-52
2022/09/24 04:29:01;;;;;;;2.55;0.30;;;;;;;9.96;77.84;98367.91;5051781;28;20040;-54
2022/09/24 04:31:26;;;;;;;0.57;0.20;;;;;;;10.11;77.50;98390.41;5063959;28;20032;-55
2022/09/24 04:33:53;;;;;;;0.73;0.20;;;;;;;10.11;78.21;98376.22;5072277;28;20749;-58
2022/09/24 04:36:19;;;;;;;0.38;0.30;;;;;;;10.12;77.74;98373.38;5071721;28;20174;-47
2022/09/24 04:38:45;;;;;;;0.60;0.20;;;;;;;10.14;77.63;98363.38;5071511;28;20066;-56
2022/09/24 04:41:14;;;;;;;0.22;0.17;;;;;;;10.15;77.67;98367.72;5066298;28;20039;-61
2022/09/24 04:43:40;;;;;;;0.40;0.20;;;;;;;10.16;77.26;98358.72;5072059;28;20047;-56
2022/09/24 04:46:07;;;;;;;0.45;0.20;;;;;;;10.14;77.30;98368.72;5072941;28;20033;-52
2022/09/24 04:48:33;;;;;;;0.38;0.20;;;;;;;10.14;77.38;98355.34;5074766;28;20064;-52
2022/09/24 04:51:00;;;;;;;0.52;0.20;;;;;;;10.14;77.54;98355.34;5075228;28;20051;-55
2022/09/24 04:53:26;;;;;;;0.50;0.20;;;;;;;10.15;77.41;98349.00;5066738;28;20048;-57
2022/09/24 04:55:51;;;;;;;2.15;0.25;;;;;;;10.18;77.23;98345.16;5059787;28;20036;-56
2022/09/24 04:58:16;;;;;;;0.20;0.13;;;;;;;10.17;77.13;98339.00;5075418;28;20034;-53
2022/09/24 05:00:42;;;;;;;1.23;0.20;;;;;;;10.18;77.10;98329.13;5075734;28;20035;-54
2022/09/24 05:03:08;;;;;;;0.90;0.30;;;;;;;10.11;76.87;98310.19;5075262;28;20114;-53
2022/09/24 05:05:34;;;;;;;0.22;0.20;;;;;;;10.19;76.92;98320.09;5074988;28;20358;-51
2022/09/24 05:08:01;;;;;;;1.25;0.17;;;;;;;10.23;77.57;98317.94;5074904;28;20459;-52
2022/09/24 05:10:28;;;;;;;0.13;0.10;;;;;;;10.28;77.05;98312.97;5074801;28;20055;-56
2022/09/24 05:12:53;;;;;;;0.10;0.10;;;;;;;10.27;76.77;98305.94;5073737;28;20058;-60
2022/09/24 05:15:19;;;;;;;0.30;0.30;;;;;;;10.27;77.01;98300.56;5071665;28;20511;-55
2022/09/24 05:17:45;;;;;;;1.30;0.30;;;;;;;10.22;76.46;98294.88;5074007;28;20405;-55
2022/09/24 05:20:11;;;;;;;1.50;0.30;;;;;;;10.22;77.25;98294.88;5074829;28;20028;-58
2022/09/24 05:22:43;;;;;;;1.15;0.20;;;;;;;10.22;77.18;98282.31;5074804;28;20108;-53
2022/09/24 05:25:10;;;;;;;1.60;0.40;;;;;;;10.23;76.94;98283.19;5074071;28;20043;-57
2022/09/24 05:27:36;;;;;;;2.55;0.20;;;;;;;10.25;77.07;98274.00;5074488;28;20032;-58
2022/09/24 05:30:05;;;;;;;0.50;0.25;;;;;;;10.27;76.92;98273.81;5074607;28;20032;-57
2022/09/24 05:32:32;;;;;;;0.63;0.40;;;;;;;10.25;76.45;98265.13;5074379;28;20060;-56
2022/09/24 05:34:58;;;;;;;0.30;0.30;;;;;;;10.24;76.73;98252.75;5074613;28;20033;-52
2022/09/24 05:37:23;;;;;;;1.05;0.40;;;;;;;10.19;76.60;98237.19;5074481;28;20111;-57
2022/09/24 05:39:49;;;;;;;2.58;0.50;;;;;;;10.22;76.52;98238.72;5074662;28;20021;-58
2022/09/24 05:42:15;;;;;;;0.32;0.28;;;;;;;10.26;76.58;98238.25;5074254;28;20086;-54
2022/09/24 05:44:42;;;;;;;1.77;0.45;;;;;;;10.30;77.01;98234.22;5074521;28;20028;-53
2022/09/24 05:47:08;;;;;;;1.25;0.45;;;;;;;10.33;76.46;98222.34;5074229;28;20044;-55
2022/09/24 05:49:34;;;;;;;1.55;0.90;;;;;;;10.34;76.15;98216.00;5074108;28;20071;-55
2022/09/24 05:52:00;;;;;;;1.67;1.27;;;;;;;10.36;76.19;98219.34;5073935;28;20083;-55
2022/09/24 05:54:26;;;;;;;1.70;1.60;;;;;;;10.39;76.33;98210.19;5074044;28;20446;-58
2022/09/24 05:56:52;;;;;;;2.58;1.67;;;;;;;10.42;76.32;98216.09;5073994;28;20075;-55
2022/09/24 05:59:17;;;;;;;2.15;1.38;;;;;;;10.44;76.14;98210.56;5071986;28;20124;-57
2022/09/24 06:01:43;;;;;;;2.33;1.38;;;;;;;10.41;76.00;98206.38;5073957;28;20028;-56
2022/09/24 06:04:13;;;;;;;1.52;0.68;;;;;;;10.38;75.79;98197.81;5073767;28;20316;-56
2022/09/24 06:06:38;;;;;;;3.20;1.10;;;;;;;10.31;76.05;98190.44;5073503;28;20028;-54
2022/09/24 06:09:04;;;;;;;1.17;0.70;;;;;;;10.35;76.30;98196.28;5073430;28;20060;-56
2022/09/24 06:11:34;;;;;;;3.03;0.70;;;;;;;10.39;75.19;98191.44;5073861;28;20103;-57
2022/09/24 06:14:03;;;;;;;1.08;0.47;;;;;;;10.27;75.75;98185.56;5073750;28;20316;-59
2022/09/24 06:16:30;;;;;;;1.50;0.60;;;;;;;10.21;76.12;98176.34;5073771;28;20103;-59
2022/09/24 06:18:56;;;;;;;3.50;2.17;;;;;;;10.31;76.08;98173.53;5073606;28;20029;-56
2022/09/24 06:21:21;;;;;;;0.85;0.68;;;;;;;10.25;75.69;98164.34;5073513;28;20040;-62
2022/09/24 06:23:47;;;;;;;2.10;0.70;;;;;;;10.16;75.88;98151.94;5072488;28;20056;-59
2022/09/24 06:26:13;;;;;;;2.88;0.55;;;;;;;10.31;75.77;98176.22;5071716;28;20032;-59
2022/09/24 06:28:40;;;;;;;2.38;0.70;;;;;;;10.28;75.79;98177.38;5072695;28;20387;-57
2022/09/24 06:31:07;;;;;;;1.10;0.60;;;;;;;10.26;76.31;98176.72;5072760;28;20039;-56
2022/09/24 06:33:32;;;;;;;1.33;0.43;;;;;;;10.25;75.87;98179.53;5073024;28;20473;-57
2022/09/24 06:36:00;;;;;;;1.73;0.50;;;;;;;10.29;76.13;98183.56;5073490;28;20035;-60
2022/09/24 06:38:25;;;;;;;4.03;0.80;;;;;;;10.31;76.27;98178.88;5072751;28;20043;-59
2022/09/24 06:40:51;;;;;;;2.15;0.70;;;;;;;10.33;75.91;98168.84;5072969;28;20033;-62
2022/09/24 06:43:17;;;;;;;1.42;0.70;;;;;;;10.38;76.04;98173.72;5072124;28;20035;-60
2022/09/24 06:45:43;;;;;;;1.90;0.60;;;;;;;10.37;76.22;98172.06;5072365;28;20117;-59
2022/09/24 06:48:13;;;;;;;1.55;0.60;;;;;;;10.38;75.64;98171.91;5072771;28;21230;-58
2022/09/24 06:50:42;;;;;;;1.67;1.00;;;;;;;10.33;75.85;98171.53;5072384;28;20037;-61
2022/09/24 06:53:09;;;;;;;3.80;1.48;;;;;;;10.28;76.17;98169.38;5072331;28;20346;-61
2022/09/24 06:55:37;;;;;;;2.53;1.05;;;;;;;10.30;76.45;98178.06;5072177;28;20048;-60
2022/09/24 06:58:07;;;;;;;2.85;1.40;;;;;;;10.31;76.10;98170.84;5052671;28;20363;-60
2022/09/24 07:00:33;;;;;;;3.63;1.50;;;;;;;10.33;75.87;98168.84;5051680;28;20375;-62
2022/09/24 07:02:59;;;;;;;2.00;1.40;;;;;;;10.32;76.15;98159.16;5053323;28;20340;-64
2022/09/24 07:05:24;;;;;;;3.75;1.30;;;;;;;10.31;76.21;98158.34;5072911;28;20134;-60
2022/09/24 07:07:50;;;;;;;2.08;1.15;;;;;;;10.30;76.50;98161.16;5072865;28;20439;-68
2022/09/24 07:10:16;;;;;;;3.63;1.90;;;;;;;10.28;76.53;98156.00;5071965;28;20035;-54
2022/09/24 07:12:42;;;;;;;2.63;1.65;;;;;;;10.27;76.12;98150.78;5072336;28;20033;-53
2022/09/24 07:15:08;;;;;;;5.57;2.72;;;;;;;10.33;76.32;98144.78;5072464;28;20032;-57
2022/09/24 07:17:34;;;;;;;5.72;2.65;;;;;;;10.32;76.23;98153.81;5072819;28;20064;-56
2022/09/24 07:20:00;;;;;;;3.97;2.15;;;;;;;10.14;76.30;98120.03;5072352;28;20052;-53
2022/09/24 07:22:25;;;;;;;8.07;1.98;;;;;;;10.22;76.18;98137.91;5071801;28;20029;-58
2022/09/24 07:24:51;;;;;;;3.40;1.45;;;;;;;10.34;76.49;98139.28;5072848;28;20033;-64
2022/09/24 07:27:18;;;;;;;3.83;1.20;;;;;;;10.40;76.40;98139.63;5072596;28;20534;-55
2022/09/24 07:29:43;;;;;;;3.00;1.30;;;;;;;10.40;76.12;98142.28;5072307;28;20028;-57
2022/09/24 07:32:09;;;;;;;2.50;0.88;;;;;;;10.45;76.73;98132.81;5072425;28;20029;-57
2022/09/24 07:34:34;;;;;;;3.35;1.63;;;;;;;10.45;76.08;98130.13;5072417;28;20032;-56
2022/09/24 07:37:00;;;;;;;4.63;0.90;;;;;;;10.23;75.61;98106.66;5071236;28;20056;-55
2022/09/24 07:39:26;;;;;;;3.17;1.40;;;;;;;10.35;76.52;98132.06;5072024;28;20040;-58
2022/09/24 07:41:52;;;;;;;4.47;1.60;;;;;;;10.28;76.27;98113.19;5072258;28;20040;-59
2022/09/24 07:44:19;;;;;;;6.97;2.30;;;;;;;10.28;76.38;98104.31;5072375;28;20028;-53
2022/09/24 07:46:51;;;;;;;5.07;2.63;;;;;;;10.41;76.53;98120.78;5071978;28;20029;-56
2022/09/24 07:49:17;;;;;;;6.70;2.50;;;;;;;10.38;76.13;98113.03;5071995;28;20083;-58
2022/09/24 07:51:44;;;;;;;1.85;1.50;;;;;;;10.38;76.01;98106.84;5071713;28;20124;-52
2022/09/24 07:54:10;;;;;;;3.60;1.20;;;;;;;10.37;75.65;98103.34;5071582;28;20517;-57
2022/09/24 07:56:36;;;;;;;2.00;1.30;;;;;;;10.40;75.40;98111.06;5071372;28;20067;-58
2022/09/24 07:59:02;;;;;;;5.68;1.25;;;;;;;10.39;76.22;98098.66;5071990;28;20346;-56
2022/09/24 08:01:27;;;;;;;3.70;1.70;;;;;;;10.42;75.81;98093.00;5071891;28;20474;-59
2022/09/24 08:03:53;;;;;;;2.25;1.05;;;;;;;10.36;75.67;98082.09;5072130;28;20021;-66
2022/09/24 08:06:21;;;;;;;5.15;1.90;;;;;;;10.48;75.61;98097.69;5072271;28;20025;-55
2022/09/24 08:08:51;;;;;;;3.45;1.20;;;;;;;10.53;75.35;98093.69;5072140;28;20446;-56
2022/09/24 08:11:18;;;;;;;1.52;0.80;;;;;;;10.44;75.32;98093.69;5071780;28;20032;-59
2022/09/24 08:13:44;;;;;;;2.00;0.82;;;;;;;10.35;75.00;98083.91;5071194;28;20102;-60
2022/09/24 08:16:11;;;;;;;2.58;1.20;;;;;;;10.31;75.60;98090.59;5072077;28;20025;-54
2022/09/24 08:18:38;;;;;;;3.70;1.30;;;;;;;10.33;75.84;98089.47;5071637;28;20039;-58
2022/09/24 08:21:10;;;;;;;3.10;1.27;;;;;;;10.43;76.00;98085.81;5072747;28;20447;-57
2022/09/24 08:23:39;;;;;;;3.42;1.77;;;;;;;10.48;76.27;98087.00;5075450;28;20048;-56
2022/09/24 08:26:05;;;;;;;3.08;1.23;;;;;;;10.48;76.00;98081.63;5075566;28;20036;-60
2022/09/24 08:28:30;;;;;;;3.33;1.38;;;;;;;10.47;75.23;98082.66;5075391;28;20037;-56
2022/09/24 08:31:01;;;;;;;1.88;1.42;;;;;;;10.58;75.49;98083.31;5075569;28;20114;-60
2022/09/24 08:33:28;;;;;;;4.03;2.00;;;;;;;10.47;75.30;98077.28;5055742;28;20033;-57
2022/09/24 08:35:54;;;;;;;3.40;2.15;;;;;;;10.42;74.83;98068.94;5055676;28;20060;-57
2022/09/24 08:38:22;;;;;;;4.25;2.70;;;;;;;10.48;75.32;98076.28;5055008;28;20521;-61
2022/09/24 08:41:11;;;;;;;6.68;4.05;;;;;;;10.66;75.31;98077.13;5074468;28;20340;-56
2022/09/24 08:47:32;;;;;;;9.95;4.88;;;;;;;10.74;74.75;98071.78;5048812;28;20055;-59
2022/09/24 08:50:19;;;;;;;8.75;3.95;;;;;;;10.73;74.90;98070.94;5074930;28;20040;-56
2022/09/24 08:53:32;;;;;;;7.90;2.78;;;;;;;10.77;74.83;98068.75;5075273;28;20052;-52
2022/09/24 08:56:00;;;;;;;5.25;2.70;;;;;;;10.69;74.54;98066.91;5065424;28;20417;-52
2022/09/24 08:59:00;;;;;;;5.63;3.35;;;;;;;10.82;74.88;98062.88;5075111;28;20054;-62
2022/09/24 09:01:48;;;;;;;7.38;3.17;;;;;;;10.90;74.15;98057.53;5075664;28;20036;-66
2022/09/24 09:04:19;;;;;;;4.05;2.17;;;;;;;10.93;73.74;98051.84;5074365;28;20032;-53
2022/09/24 09:07:06;;;;;;;3.85;2.42;;;;;;;10.97;74.21;98050.50;5073576;28;20430;-58
2022/09/24 09:09:51;;;;;;;12.43;6.10;;;;;;;11.16;73.46;98059.16;5073809;28;20041;-54
2022/09/24 09:12:37;;;;;;;12.15;6.10;;;;;;;11.13;73.62;98054.97;5074450;28;20828;-52
2022/09/24 09:15:12;;;;;;;14.10;7.25;;;;;;;11.10;73.27;98051.81;5074263;28;20032;-57
2022/09/24 09:17:48;;;;;;;11.45;5.88;;;;;;;11.01;73.12;98045.63;5074258;28;20029;-55
2022/09/24 09:20:38;;;;;;;6.82;3.97;;;;;;;11.04;73.68;98046.13;5074557;28;20075;-55
2022/09/24 09:23:19;;;;;;;6.78;4.47;;;;;;;11.06;73.71;98041.41;5074411;28;20042;-56
2022/09/24 09:25:51;;;;;;;4.22;2.42;;;;;;;11.14;74.08;98039.75;5073495;28;20048;-51
2022/09/24 09:28:18;;;;;;;4.20;2.35;;;;;;;11.19;73.85;98040.06;5073555;28;20048;-53
2022/09/24 09:31:05;;;;;;;3.50;2.28;;;;;;;11.25;73.24;98030.50;5074675;28;20082;-58
2022/09/24 09:33:45;;;;;;;4.07;1.60;;;;;;;11.36;73.02;98035.47;5073176;28;20024;-57
2022/09/24 09:36:13;;;;;;;2.72;1.90;;;;;;;11.23;72.76;98036.03;5073786;28;20060;-54
2022/09/24 09:39:09;;;;;;;3.75;2.22;;;;;;;11.32;73.31;98028.81;5073877;28;20036;-55
2022/09/24 09:41:51;;;;;;;4.18;2.17;;;;;;;11.40;72.78;98030.63;5073923;28;20032;-57
2022/09/24 09:44:25;;;;;;;3.67;2.10;;;;;;;11.48;72.93;98028.75;5073351;28;20036;-55
2022/09/24 09:46:59;;;;;;;5.85;2.35;;;;;;;11.59;72.91;98021.31;5073881;28;20062;-56
2022/09/24 09:49:33;;;;;;;4.25;1.80;;;;;;;11.67;72.85;98013.22;5074425;28;20064;-57
2022/09/24 09:52:03;;;;;;;7.00;3.10;;;;;;;11.61;71.31;98012.09;5073761;28;20070;-63
2022/09/24 09:54:36;;;;;;;5.53;2.85;;;;;;;11.66;71.61;98013.41;5074120;28;20033;-63
2022/09/24 09:57:02;;;;;;;6.30;2.80;;;;;;;11.52;71.65;98015.81;5073173;28;20382;-57
2022/09/24 09:59:30;;;;;;;5.68;2.80;;;;;;;11.50;72.49;98007.13;5070964;28;20030;-52
2022/09/24 10:01:56;;;;;;;5.13;2.67;;;;;;;11.45;72.36;98002.31;5073871;28;20473;-53
2022/09/24 10:04:33;;;;;;;5.18;2.53;;;;;;;11.51;72.36;98005.28;5073613;28;20476;-56
2022/09/24 10:07:11;;;;;;;4.05;2.60;;;;;;;11.46;71.83;98011.16;5073874;28;20037;-62
2022/09/24 10:09:38;;;;;;;2.67;1.90;;;;;;;11.30;72.04;98007.53;5073575;28;20035;-51
2022/09/24 10:12:10;;;;;;;5.93;2.00;;;;;;;11.29;72.56;98005.84;5073433;28;20029;-59
2022/09/24 10:14:35;;;;;;;4.93;2.17;;;;;;;11.23;72.86;98009.25;5073418;28;20094;-57
2022/09/24 10:17:04;;;;;;;2.28;1.40;;;;;;;11.20;72.92;98013.09;5073009;28;20040;-56
2022/09/24 10:19:32;;;;;;;3.45;1.98;;;;;;;11.19;72.98;98002.56;5073793;28;20032;-66
2022/09/24 10:22:09;;;;;;;4.30;2.45;;;;;;;11.30;72.88;98004.03;5073130;28;20032;-54
2022/09/24 10:24:36;;;;;;;5.75;2.25;;;;;;;11.22;72.44;98006.75;5072917;28;20086;-53
2022/09/24 10:27:10;;;;;;;4.88;2.25;;;;;;;11.31;73.49;98003.84;5072152;28;20355;-56
2022/09/24 10:32:22;;;;;;;2.55;1.67;;;;;;;11.33;72.17;98006.34;5073006;28;20115;-57
2022/09/24 10:35:20;;;;;;;4.30;1.58;;;;;;;11.32;72.55;97984.06;5072672;28;20400;-54
2022/09/24 10:37:57;;;;;;;3.20;2.17;;;;;;;11.39;72.17;98010.19;5068682;28;20042;-58
2022/09/24 10:40:29;;;;;;;4.40;2.03;;;;;;;11.36;73.18;97997.97;5072842;28;20446;-57
2022/09/24 10:43:01;;;;;;;4.18;2.30;;;;;;;11.43;73.07;97998.13;5072263;28;20107;-56
2022/09/24 10:45:50;;;;;;;4.25;2.22;;;;;;;11.55;72.96;98004.75;5072547;28;20033;-59
2022/09/24 10:48:43;;;;;;;3.70;2.00;;;;;;;11.68;72.42;97998.00;5072766;28;20478;-53
2022/09/24 10:51:18;;;;;;;3.17;1.58;;;;;;;11.70;72.24;97985.25;5072681;28;20443;-55
2022/09/24 10:53:50;;;;;;;2.67;1.67;;;;;;;11.74;71.23;97990.09;5072292;28;20063;-56
2022/09/24 10:56:28;;;;;;;3.65;2.10;;;;;;;11.78;71.82;97993.22;5072848;28;20103;-55
2022/09/24 10:59:16;;;;;;;5.15;2.30;;;;;;;11.87;71.76;97997.53;5072752;28;20079;-57
2022/09/24 11:02:22;;;;;;;4.10;1.75;;;;;;;11.86;71.49;97986.97;5072434;28;20086;-56
2022/09/24 11:04:57;;;;;;;3.00;1.70;;;;;;;11.82;71.70;97989.19;5072771;28;20119;-57
2022/09/24 11:07:32;;;;;;;3.65;2.13;;;;;;;11.79;71.55;97984.16;5072572;28;20094;-58
2022/09/24 11:10:19;;;;;;;2.70;1.50;;;;;;;11.68;71.01;97988.09;5071232;28;20032;-56
2022/09/24 11:13:06;;;;;;;3.85;1.58;;;;;;;11.73;71.70;97984.88;5071219;28;20138;-57
2022/09/24 11:16:10;;;;;;;1.98;1.35;;;;;;;11.67;71.19;97982.91;5073009;28;20390;-55
2022/09/24 11:18:46;;;;;;;2.42;1.33;;;;;;;11.59;71.58;97979.28;5072848;28;20040;-56
2022/09/24 11:21:20;;;;;;;2.10;1.58;;;;;;;11.53;71.87;97985.31;5071889;28;20089;-57
2022/09/24 11:24:10;;;;;;;2.55;1.13;;;;;;;11.59;71.46;97987.31;5072092;28;20112;-58
2022/09/24 11:27:21;;;;;;;1.65;1.40;;;;;;;11.60;71.93;97985.47;5072252;28;20454;-57
2022/09/24 11:30:06;;;;;;;2.20;1.20;;;;;;;11.55;71.80;97977.13;5071292;28;20062;-55
2022/09/24 11:32:56;;;;;;;3.37;1.50;;;;;;;11.53;71.63;97974.59;5072113;28;20126;-59
2022/09/24 11:35:38;;;;;;;1.70;1.20;;;;;;;11.56;71.75;97978.78;5072144;28;20033;-59
2022/09/24 11:38:19;;;;;;;3.53;1.48;;;;;;;11.57;71.59;97975.09;5072443;28;20404;-65
2022/09/24 11:41:15;;;;;;;1.30;1.10;;;;;;;11.45;71.96;97956.75;5071752;28;20032;-57
2022/09/24 11:43:59;;;;;;;1.45;1.10;;;;;;;11.51;71.88;97960.53;5071652;28;20031;-58
2022/09/24 11:46:37;;;;;;;3.00;1.08;;;;;;;11.52;71.47;97970.25;5071553;28;20494;-53
2022/09/24 11:49:15;;;;;;;1.65;1.45;;;;;;;11.52;71.75;97964.88;5071663;28;20044;-53
2022/09/24 11:52:02;;;;;;;4.63;1.77;;;;;;;11.58;72.01;97956.16;5071331;28;20455;-54
2022/09/24 11:54:48;;;;;;;3.85;1.30;;;;;;;11.56;71.48;97962.72;5072229;28;20054;-55
2022/09/24 11:57:20;;;;;;;2.10;1.00;;;;;;;11.59;71.75;97957.84;5078578;28;20043;-50
2022/09/24 11:59:52;;;;;;;2.08;0.95;;;;;;;11.56;71.39;97963.53;5078588;28;20039;-56
2022/09/24 12:02:25;;;;;;;1.20;0.95;;;;;;;11.34;71.38;97946.41;5078386;28;20060;-56
2022/09/24 12:05:05;;;;;;;1.40;0.80;;;;;;;11.41;71.95;97955.41;5078687;28;20115;-53